createdAt,value
2019-03-22T00:00:43.930Z,101977.87
2019-03-22T02:36:00.718Z,101947.06
2019-03-22T02:38:30.433Z,101943.97
2019-03-22T02:41:00.123Z,101943.97
2019-03-22T02:43:29.799Z,101943.49
2019-03-22T02:45:59.479Z,101939.47
2019-03-22T02:48:29.211Z,101935.95
2019-03-22T02:50:58.930Z,101930.22
2019-03-22T02:53:28.627Z,101941.15
2019-03-22T02:55:58.658Z,101943.91
2019-03-22T02:58:28.462Z,101941.05
2019-03-22T03:00:58.113Z,101937.76
2019-03-22T03:03:27.804Z,101935.20
2019-03-22T03:05:57.515Z,101934.59
2019-03-22T03:08:27.195Z,101940.83
2019-03-22T03:10:56.904Z,101932.42
2019-03-22T03:13:26.606Z,101932.06
2019-03-22T03:15:56.270Z,101930.90
2019-03-22T03:18:25.939Z,101934.18
2019-03-22T03:20:55.640Z,101929.05
2019-03-22T03:23:25.565Z,101929.94
2019-03-22T03:25:55.262Z,101929.46
2019-03-22T03:28:36.044Z,101927.67
2019-03-22T03:30:56.396Z,101929.28
2019-03-22T03:33:26.108Z,101919.27
2019-03-22T03:35:55.790Z,101923.14
2019-03-22T03:38:25.511Z,101927.86
2019-03-22T03:40:55.234Z,101925.11
2019-03-22T03:43:24.923Z,101916.77
2019-03-22T03:45:54.636Z,101918.41
2019-03-22T03:48:24.345Z,101914.83
2019-03-22T03:50:54.149Z,101913.45
2019-03-22T03:53:23.842Z,101910.78
2019-03-22T03:55:53.503Z,101916.02
2019-03-22T03:58:23.176Z,101916.91
2019-03-22T04:00:52.868Z,101916.50
2019-03-22T04:03:22.553Z,101919.60
2019-03-22T04:05:52.276Z,101915.31
2019-03-22T04:08:21.972Z,101914.53
2019-03-22T04:10:51.666Z,101909.28
2019-03-22T04:13:21.337Z,101912.80
2019-03-22T04:15:51.077Z,101921.39
2019-03-22T04:18:20.955Z,101921.98
2019-03-22T04:20:50.741Z,101924.84
2019-03-22T04:23:20.501Z,101921.89
2019-03-22T04:25:50.183Z,101922.19
2019-03-22T04:28:20.123Z,101917.14
2019-03-22T04:30:50.017Z,101919.83
2019-03-22T04:33:19.809Z,101924.03
2019-03-22T04:35:49.496Z,101920.28
2019-03-22T04:38:19.157Z,101915.45
2019-03-22T04:40:48.870Z,101913.31
2019-03-22T04:43:18.534Z,101919.03
2019-03-22T04:45:50.347Z,101920.02
2019-03-22T04:48:28.193Z,101921.03
2019-03-22T04:51:00.959Z,101922.88
2019-03-22T04:53:35.585Z,101920.31
2019-03-22T04:56:05.543Z,101919.00
2019-03-22T04:58:36.398Z,101923.83
2019-03-22T05:01:07.031Z,101919.48
2019-03-22T05:03:38.393Z,101913.81
2019-03-22T05:06:09.770Z,101908.09
2019-03-22T05:08:41.813Z,101903.38
2019-03-22T05:11:14.453Z,101909.11
2019-03-22T05:13:46.178Z,101912.92
2019-03-22T05:16:18.530Z,101924.61
2019-03-22T05:18:51.326Z,101926.05
2019-03-22T05:21:25.006Z,101924.73
2019-03-22T05:24:18.297Z,101928.66
2019-03-22T05:26:50.092Z,101934.39
2019-03-22T05:29:40.096Z,101940.17
2019-03-22T05:32:12.315Z,101944.23
2019-03-22T05:34:42.054Z,101950.88
2019-03-22T05:37:11.820Z,101950.58
2019-03-22T05:39:41.797Z,101949.80
2019-03-22T05:42:11.610Z,101950.64
2019-03-22T05:44:41.280Z,101949.69
2019-03-22T05:47:11.018Z,101950.10
2019-03-22T05:49:40.691Z,101951.36
2019-03-22T05:52:10.462Z,101957.98
2019-03-22T05:54:40.143Z,101966.09
2019-03-22T05:57:13.588Z,101971.58
2019-03-22T05:59:42.799Z,101969.55
2019-03-22T06:02:12.679Z,101973.09
2019-03-22T06:04:42.362Z,101979.72
2019-03-22T06:07:12.023Z,101986.28
2019-03-22T06:09:41.797Z,101987.23
2019-03-22T06:12:11.503Z,101986.45
2019-03-22T06:14:41.179Z,101989.20
2019-03-22T06:17:10.929Z,101991.17
2019-03-22T06:19:40.584Z,101996.06
2019-03-22T06:22:10.286Z,101997.88
2019-03-22T06:24:39.924Z,101997.88
2019-03-22T06:27:09.592Z,101999.64
2019-03-22T06:29:39.280Z,101993.08
2019-03-22T06:32:08.962Z,101991.43
2019-03-22T06:34:38.700Z,101992.44
2019-03-22T06:37:08.374Z,101993.92
2019-03-22T06:39:38.014Z,101994.94
2019-03-22T06:42:07.703Z,101994.10
2019-03-22T06:44:37.382Z,101990.30
2019-03-22T06:47:07.072Z,101990.77
2019-03-22T06:49:36.737Z,101994.23
2019-03-22T06:52:06.423Z,101996.42
2019-03-22T06:54:36.100Z,101997.31
2019-03-22T06:57:05.763Z,102004.02
2019-03-22T06:59:35.519Z,102006.41
2019-03-22T07:02:05.251Z,102007.52
2019-03-22T07:04:34.919Z,102004.20
2019-03-22T07:07:04.610Z,102002.16
2019-03-22T07:09:34.280Z,102007.95
2019-03-22T07:12:03.949Z,102005.73
2019-03-22T07:14:33.619Z,102001.43
2019-03-22T07:17:03.326Z,102007.16
2019-03-22T07:19:32.976Z,102006.73
2019-03-22T07:22:02.617Z,102010.80
2019-03-22T07:24:32.293Z,102006.55
2019-03-22T07:27:01.945Z,102005.30
2019-03-22T07:29:31.615Z,102008.28
2019-03-22T07:32:01.289Z,102003.39
2019-03-22T07:34:31.000Z,102000.45
2019-03-22T07:37:00.680Z,102006.36
2019-03-22T07:39:30.333Z,102008.38
2019-03-22T07:42:00.021Z,102001.61
2019-03-22T07:44:29.664Z,101996.67
2019-03-22T07:46:59.324Z,101996.52
2019-03-22T07:49:28.973Z,101988.02
2019-03-22T07:51:58.666Z,101987.38
2019-03-22T07:54:28.304Z,101988.00
2019-03-22T07:56:57.952Z,101986.86
2019-03-22T07:59:27.664Z,101984.06
2019-03-22T08:01:57.363Z,101979.53
2019-03-22T08:04:27.040Z,101978.14
2019-03-22T08:06:56.712Z,101980.13
2019-03-22T08:09:26.429Z,101970.07
2019-03-22T08:11:56.087Z,101974.97
2019-03-22T08:14:25.772Z,101966.95
2019-03-22T08:16:55.451Z,101974.45
2019-03-22T08:19:25.190Z,101976.19
2019-03-22T08:21:54.830Z,101978.86
2019-03-22T08:24:24.482Z,101965.70
2019-03-22T08:26:54.169Z,101957.92
2019-03-22T08:29:23.841Z,101944.38
2019-03-22T08:31:53.591Z,101949.50
2019-03-22T08:34:23.324Z,101947.29
2019-03-22T08:36:52.963Z,101941.97
2019-03-22T08:39:22.619Z,101941.08
2019-03-22T08:41:52.295Z,101937.47
2019-03-22T08:44:21.971Z,101939.45
2019-03-22T08:46:51.633Z,101941.42
2019-03-22T08:49:21.344Z,101936.31
2019-03-22T08:51:51.135Z,101932.97
2019-03-22T08:54:20.782Z,101921.34
2019-03-22T08:56:50.492Z,101919.39
2019-03-22T08:59:20.362Z,101913.70
2019-03-22T09:01:50.060Z,101907.00
2019-03-22T09:04:19.719Z,101902.44
2019-03-22T09:06:49.437Z,101899.86
2019-03-22T09:09:19.100Z,101890.41
2019-03-22T09:11:48.708Z,101888.46
2019-03-22T09:14:18.362Z,101888.46
2019-03-22T09:16:48.074Z,101885.25
2019-03-22T09:19:17.708Z,101875.16
2019-03-22T09:21:47.437Z,101857.11
2019-03-22T09:24:19.028Z,101859.86
2019-03-22T09:26:48.528Z,101854.17
2019-03-22T09:29:18.231Z,101853.33
2019-03-22T09:31:47.918Z,101862.45
2019-03-22T09:34:17.542Z,101859.00
2019-03-22T09:36:47.188Z,101853.56
2019-03-22T09:39:16.882Z,101850.89
2019-03-22T09:41:46.551Z,101846.13
2019-03-22T09:44:16.246Z,101846.02
2019-03-22T09:46:45.936Z,101840.35
2019-03-22T09:49:15.613Z,101838.17
2019-03-22T09:51:45.323Z,101832.92
2019-03-22T09:54:15.038Z,101829.92
2019-03-22T09:56:47.215Z,101835.64
2019-03-22T09:59:16.153Z,101825.91
2019-03-22T10:01:45.861Z,101830.33
2019-03-22T10:04:15.526Z,101821.95
2019-03-22T10:06:45.311Z,101824.81
2019-03-22T10:09:14.952Z,101816.41
2019-03-22T10:11:44.627Z,101815.84
2019-03-22T10:14:14.298Z,101814.44
2019-03-22T10:16:43.975Z,101806.12
2019-03-22T10:19:13.616Z,101805.84
2019-03-22T10:21:43.381Z,101798.65
2019-03-22T10:24:13.067Z,101799.31
2019-03-22T10:26:42.708Z,101798.47
2019-03-22T10:29:12.396Z,101790.58
2019-03-22T10:31:42.112Z,101791.45
2019-03-22T10:34:11.787Z,101789.36
2019-03-22T10:36:41.500Z,101784.69
2019-03-22T10:39:11.436Z,101782.08
2019-03-22T10:41:41.140Z,101779.54
2019-03-22T10:44:10.815Z,101788.06
2019-03-22T10:46:40.545Z,101776.95
2019-03-22T10:49:10.207Z,101780.16
2019-03-22T10:51:39.887Z,101775.61
2019-03-22T10:54:09.602Z,101774.28
2019-03-22T10:56:39.285Z,101766.52
2019-03-22T10:59:08.949Z,101767.53
2019-03-22T11:01:48.664Z,101756.95
2019-03-22T11:06:39.681Z,101756.67
2019-03-22T11:09:10.177Z,101748.75
2019-03-22T11:11:39.852Z,101751.88
2019-03-22T11:14:09.575Z,101740.50
2019-03-22T11:16:39.326Z,101743.82
2019-03-22T11:19:08.984Z,101750.55
2019-03-22T11:21:38.654Z,101752.72
2019-03-22T11:24:08.297Z,101750.95
2019-03-22T11:26:37.969Z,101739.09
2019-03-22T11:29:07.716Z,101733.66
2019-03-22T11:31:40.135Z,101730.59
2019-03-22T11:34:08.788Z,101725.22
2019-03-22T11:36:38.460Z,101725.02
2019-03-22T11:39:15.913Z,101715.05
2019-03-22T11:41:43.686Z,101707.06
2019-03-22T11:44:13.375Z,101711.19
2019-03-22T11:46:43.060Z,101707.31
2019-03-22T11:49:12.864Z,101700.59
2019-03-22T11:51:42.620Z,101693.90
2019-03-22T11:54:12.360Z,101688.02
2019-03-22T11:56:42.033Z,101683.14
2019-03-22T11:59:11.751Z,101681.53
2019-03-22T12:01:41.449Z,101685.03
2019-03-22T12:04:11.969Z,101678.91
2019-03-22T12:06:41.631Z,101677.47
2019-03-22T12:09:11.341Z,101668.09
2019-03-22T12:11:42.146Z,101666.53
2019-03-22T12:14:11.999Z,101661.52
2019-03-22T12:16:41.737Z,101660.82
2019-03-22T12:19:11.400Z,101654.24
2019-03-22T12:21:41.110Z,101655.34
2019-03-22T12:24:10.864Z,101651.09
2019-03-22T12:26:40.583Z,101647.73
2019-03-22T12:29:10.274Z,101641.35
2019-03-22T12:31:39.955Z,101638.38
2019-03-22T12:34:09.675Z,101577.89
2019-03-22T12:36:39.425Z,101627.66
2019-03-22T12:39:10.053Z,101628.08
2019-03-22T12:41:39.732Z,101634.55
2019-03-22T12:44:09.482Z,101626.56
2019-03-22T12:46:39.169Z,101621.70
2019-03-22T12:49:08.850Z,101618.17
2019-03-22T12:51:38.514Z,101610.86
2019-03-22T12:54:08.215Z,101611.36
2019-03-22T12:56:37.884Z,101614.33
2019-03-22T12:59:07.635Z,101609.42
2019-03-22T13:01:37.311Z,101600.27
2019-03-22T13:04:07.000Z,101590.99
2019-03-22T13:06:36.722Z,101596.77
2019-03-22T13:09:09.185Z,101579.17
2019-03-22T13:11:38.912Z,101577.37
2019-03-22T13:14:08.583Z,101575.98
2019-03-22T13:16:38.271Z,101581.70
2019-03-22T13:19:07.922Z,101569.27
2019-03-22T13:21:37.613Z,101565.13
2019-03-22T13:24:07.307Z,101566.16
2019-03-22T13:26:36.989Z,101558.31
2019-03-22T13:29:06.699Z,101558.31
2019-03-22T13:31:36.457Z,101553.48
2019-03-22T13:34:06.161Z,101551.70
2019-03-22T13:36:35.860Z,101550.25
2019-03-22T13:39:08.184Z,101541.56
2019-03-22T13:41:38.002Z,101539.19
2019-03-22T13:44:07.849Z,101537.60
2019-03-22T13:46:40.617Z,101540.84
2019-03-22T13:49:09.119Z,101537.03
2019-03-22T13:51:38.923Z,101534.19
2019-03-22T13:54:08.614Z,101527.72
2019-03-22T13:56:38.366Z,101523.52
2019-03-22T13:59:08.058Z,101519.95
2019-03-22T14:01:37.725Z,101512.90
2019-03-22T14:04:07.461Z,101513.64
2019-03-22T14:06:37.233Z,101515.91
2019-03-22T14:09:08.805Z,101512.39
2019-03-22T14:11:38.567Z,101512.39
2019-03-22T14:14:08.263Z,101511.46
2019-03-22T14:16:37.969Z,101505.25
2019-03-22T14:19:07.647Z,101503.27
2019-03-22T14:21:37.313Z,101497.53
2019-03-22T14:24:07.013Z,101487.52
2019-03-22T14:26:36.693Z,101490.16
2019-03-22T14:29:06.403Z,101489.05
2019-03-22T14:31:36.085Z,101483.07
2019-03-22T14:34:05.757Z,101481.94
2019-03-22T14:36:35.413Z,101482.10
2019-03-22T14:39:07.840Z,101488.51
2019-03-22T14:41:37.538Z,101476.50
2019-03-22T14:44:07.255Z,101476.80
2019-03-22T14:46:36.932Z,101475.47
2019-03-22T14:49:06.599Z,101472.45
2019-03-22T14:51:36.284Z,101461.73
2019-03-22T14:54:05.951Z,101465.88
2019-03-22T14:56:35.622Z,101459.00
2019-03-22T14:59:05.291Z,101451.08
2019-03-22T15:01:34.959Z,101448.44
2019-03-22T15:04:04.650Z,101440.82
2019-03-22T15:06:34.326Z,101444.72
2019-03-22T15:09:05.700Z,101443.62
2019-03-22T15:11:35.454Z,101439.27
2019-03-22T15:14:15.237Z,101439.64
2019-03-22T15:17:05.804Z,101433.06
2019-03-22T15:19:53.036Z,101428.88
2019-03-22T15:22:44.502Z,101431.30
2019-03-22T15:25:33.586Z,101423.33
2019-03-22T15:28:21.979Z,101420.95
2019-03-22T15:31:13.052Z,101421.68
2019-03-22T15:34:07.906Z,101419.77
2019-03-22T15:36:54.289Z,101413.51
2019-03-22T15:39:49.220Z,101411.31
2019-03-22T15:42:18.869Z,101409.92
2019-03-22T15:44:48.571Z,101409.50
2019-03-22T15:47:18.235Z,101406.50
2019-03-22T15:49:56.792Z,101405.74
2019-03-22T15:52:26.518Z,101413.02
2019-03-22T15:54:56.209Z,101409.73
2019-03-22T15:57:26.023Z,101404.55
2019-03-22T15:59:55.713Z,101399.69
2019-03-22T16:02:25.387Z,101403.01
2019-03-22T16:04:55.083Z,101398.53
2019-03-22T16:07:24.843Z,101395.06
2019-03-22T16:09:54.578Z,101394.89
2019-03-22T16:12:24.262Z,101391.30
2019-03-22T16:14:53.954Z,101388.30
2019-03-22T16:17:23.646Z,101384.91
2019-03-22T16:19:53.376Z,101383.47
2019-03-22T16:22:23.079Z,101380.47
2019-03-22T16:24:52.764Z,101373.74
2019-03-22T16:27:22.490Z,101377.67
2019-03-22T16:29:52.213Z,101375.70
2019-03-22T16:32:21.850Z,101371.94
2019-03-22T16:34:51.554Z,101372.08
2019-03-22T16:37:21.307Z,101373.02
2019-03-22T16:39:51.038Z,101366.70
2019-03-22T16:42:20.742Z,101371.67
2019-03-22T16:44:50.374Z,101370.89
2019-03-22T16:47:20.092Z,101365.20
2019-03-22T16:49:49.862Z,101361.30
2019-03-22T16:52:19.556Z,101368.63
2019-03-22T16:54:49.215Z,101367.53
2019-03-22T16:57:18.898Z,101367.80
2019-03-22T16:59:48.677Z,101365.34
2019-03-22T17:02:18.442Z,101359.00
2019-03-22T17:04:48.299Z,101362.51
2019-03-22T17:07:18.028Z,101362.34
2019-03-22T17:09:47.917Z,101359.56
2019-03-22T17:12:17.638Z,101364.31
2019-03-22T17:14:47.364Z,101363.69
2019-03-22T17:17:17.124Z,101365.41
2019-03-22T17:19:46.847Z,101363.09
2019-03-22T17:22:16.547Z,101358.59
2019-03-22T17:24:46.313Z,101361.55
2019-03-22T17:27:16.062Z,101355.08
2019-03-22T17:29:45.953Z,101359.75
2019-03-22T17:32:15.691Z,101357.76
2019-03-22T17:34:45.461Z,101355.69
2019-03-22T17:37:15.294Z,101355.91
2019-03-22T17:39:47.230Z,101354.80
2019-03-22T17:42:17.202Z,101356.91
2019-03-22T17:44:46.867Z,101360.47
2019-03-22T17:47:16.577Z,101352.33
2019-03-22T17:49:48.415Z,101354.84
2019-03-22T17:52:17.870Z,101350.20
2019-03-22T17:54:47.702Z,101350.92
2019-03-22T17:57:18.976Z,101353.45
2019-03-22T17:59:48.920Z,101344.82
2019-03-22T18:02:18.614Z,101352.56
2019-03-22T18:04:48.386Z,101350.04
2019-03-22T18:07:18.123Z,101351.55
2019-03-22T18:09:47.888Z,101349.98
2019-03-22T18:12:17.591Z,101350.20
2019-03-22T18:14:47.916Z,101354.53
2019-03-22T18:17:17.715Z,101353.88
2019-03-22T18:19:47.408Z,101352.81
2019-03-22T18:22:17.129Z,101357.95
2019-03-22T18:24:47.232Z,101363.59
2019-03-22T18:27:17.087Z,101364.73
2019-03-22T18:29:46.944Z,101363.56
2019-03-22T18:32:16.871Z,101367.80
2019-03-22T18:34:46.563Z,101362.64
2019-03-22T18:37:16.288Z,101364.94
2019-03-22T18:39:46.053Z,101364.98
2019-03-22T18:42:15.913Z,101369.09
2019-03-22T18:44:45.631Z,101142.83
2019-03-22T18:47:15.403Z,101364.79
2019-03-22T18:49:45.321Z,101366.23
2019-03-22T18:52:15.989Z,101369.86
2019-03-22T18:54:45.889Z,101366.81
2019-03-22T18:57:15.653Z,101374.49
2019-03-22T18:59:46.149Z,101374.63
2019-03-22T19:02:15.943Z,101376.47
2019-03-22T19:04:46.139Z,101382.27
2019-03-22T19:07:16.283Z,101381.41
2019-03-22T19:09:46.464Z,101381.41
2019-03-22T19:12:16.158Z,101385.47
2019-03-22T19:14:46.057Z,101381.55
2019-03-22T19:17:15.949Z,101390.50
2019-03-22T19:19:45.802Z,101389.24
2019-03-22T19:22:15.776Z,101385.36
2019-03-22T19:24:45.469Z,101383.21
2019-03-22T19:27:15.283Z,101390.37
2019-03-22T19:29:45.012Z,101385.52
2019-03-22T19:32:14.787Z,101386.42
2019-03-22T19:34:53.923Z,101384.27
2019-03-22T19:37:16.167Z,101376.75
2019-03-22T19:39:45.916Z,101376.36
2019-03-22T19:42:15.630Z,101379.94
2019-03-22T19:44:45.639Z,101381.73
2019-03-22T19:47:15.881Z,101378.67
2019-03-22T19:49:45.567Z,101376.03
2019-03-22T19:52:15.353Z,101379.15
2019-03-22T19:54:45.089Z,101376.98
2019-03-22T19:57:14.978Z,101380.09
2019-03-22T19:59:44.746Z,101378.33
2019-03-22T20:02:14.530Z,101383.67
2019-03-22T20:04:44.392Z,101382.80
2019-03-22T20:07:14.174Z,101382.80
2019-03-22T20:09:44.521Z,101393.00
2019-03-22T20:12:14.195Z,101389.47
2019-03-22T20:14:44.033Z,101387.70
2019-03-22T20:17:13.873Z,101381.50
2019-03-22T20:19:43.650Z,101381.50
2019-03-22T20:22:13.620Z,101384.18
2019-03-22T20:24:43.363Z,101390.36
2019-03-22T20:27:13.060Z,101388.14
2019-03-22T20:29:42.788Z,101388.61
2019-03-22T20:32:12.706Z,101389.45
2019-03-22T20:34:42.418Z,101385.89
2019-03-22T20:37:12.136Z,101385.03
2019-03-22T20:39:42.083Z,101383.24
2019-03-22T20:42:11.783Z,101384.12
2019-03-22T20:44:41.872Z,101382.78
2019-03-22T20:47:11.873Z,101390.74
2019-03-22T20:49:41.729Z,101381.90
2019-03-22T20:52:11.661Z,101382.77
2019-03-22T20:54:41.469Z,101383.67
2019-03-22T20:57:11.403Z,101379.66
2019-03-22T20:59:41.496Z,101381.42
2019-03-22T21:02:11.201Z,101388.03
2019-03-22T21:04:40.949Z,101391.09
2019-03-22T21:07:10.744Z,101378.27
2019-03-22T21:09:40.437Z,101379.57
2019-03-22T21:12:10.136Z,101384.00
2019-03-22T21:14:40.001Z,101378.20
2019-03-22T21:17:09.753Z,101383.93
2019-03-22T21:19:39.468Z,101382.56
2019-03-22T21:22:09.288Z,101383.86
2019-03-22T21:24:39.507Z,101387.34
2019-03-22T21:27:15.568Z,101373.21
2019-03-22T21:29:44.395Z,101380.25
2019-03-22T21:32:12.910Z,101383.77
2019-03-22T21:34:44.139Z,101381.54
2019-03-22T21:37:14.232Z,101385.50
2019-03-22T21:39:43.960Z,101385.06
2019-03-22T21:42:13.700Z,101380.14
2019-03-22T21:44:43.606Z,101377.43
2019-03-22T21:47:13.382Z,101381.39
2019-03-22T21:49:43.114Z,101374.27
2019-03-22T21:52:12.809Z,101374.66
2019-03-22T21:54:42.700Z,101368.90
2019-03-22T21:57:12.699Z,101372.41
2019-03-22T21:59:42.582Z,101370.20
2019-03-22T22:02:12.331Z,101375.48
2019-03-22T22:04:42.147Z,101374.53
2019-03-22T22:07:11.917Z,101378.46
2019-03-22T22:09:41.615Z,101373.13
2019-03-22T22:12:11.439Z,101369.13
2019-03-22T22:14:41.364Z,101361.63
2019-03-22T22:17:11.056Z,101361.59
2019-03-22T22:19:40.798Z,101361.98
2019-03-22T22:22:10.539Z,101361.95
2019-03-22T22:24:40.326Z,101357.95
2019-03-22T22:27:13.978Z,101353.48
2019-03-22T22:29:41.552Z,101353.02
2019-03-22T22:32:11.583Z,101352.95
2019-03-22T22:34:41.376Z,101353.82
2019-03-22T22:37:11.052Z,101356.88
2019-03-22T22:39:40.765Z,101357.27
2019-03-22T22:42:10.532Z,101353.64
2019-03-22T22:44:40.295Z,101357.12
2019-03-22T22:47:09.990Z,101352.66
2019-03-22T22:49:39.918Z,101350.02
2019-03-22T22:52:09.671Z,101349.57
2019-03-22T22:54:39.501Z,101349.11
2019-03-22T22:57:09.236Z,101337.21
2019-03-22T22:59:38.954Z,101340.73
2019-03-22T23:02:08.672Z,101327.47
2019-03-22T23:04:38.339Z,101332.28
2019-03-22T23:07:08.007Z,101324.31
2019-03-22T23:09:37.682Z,101326.92
2019-03-22T23:12:07.513Z,101315.83
2019-03-22T23:14:37.178Z,101322.39
2019-03-22T23:17:06.869Z,101314.43
2019-03-22T23:19:36.701Z,101318.77
2019-03-22T23:22:06.391Z,101313.88
2019-03-22T23:24:36.098Z,101317.80
2019-03-22T23:27:05.757Z,101314.20
2019-03-22T23:29:35.617Z,101315.95
2019-03-22T23:32:05.369Z,101315.00
2019-03-22T23:34:35.071Z,101310.95
2019-03-22T23:37:07.032Z,101313.09
2019-03-22T23:39:36.193Z,101309.98
2019-03-22T23:42:05.888Z,101307.31
2019-03-22T23:44:35.564Z,101305.92
2019-03-22T23:47:05.426Z,101311.09
2019-03-22T23:49:35.073Z,101283.09
2019-03-22T23:52:04.750Z,101308.31
2019-03-22T23:54:34.445Z,101307.84
2019-03-22T23:57:04.124Z,101307.38
2019-03-22T23:59:33.812Z,101305.63
